MMMY/MTY METAR and TAF weather

Enter ICAO airport designator
Station Type Date Time Source
MMMY METAR 2020/11/27 01:40 UTC NOAA

MMMY 270140Z 00000KT 10SM SKC 23/16 A2993 RMK RTS


Station Type Date Time Source
MMMY Decoded METAR 2020/11/27 01:40 UTC NOAA

Monterrey / Gen Maria, Mexico (MMMY) 25-47N 100-06W
Nov 26, 2020 - 08:40 PM EST / 2020.11.27 0140 UTC
Wind: Calm:0
Visibility: 10 mile(s):0
Sky conditions: clear
Temperature: 73 F (23 C)
Dew Point: 60 F (16 C)
Relative Humidity: 64%
Pressure (altimeter): 29.93 in. Hg (1013 hPa)
ob: MMMY 270140Z 00000KT 10SM SKC 23/16 A2993 RMK RTS
cycle: 1

Station Type Date Time Source
MMMY TAF 2020/11/26 18:18 UTC NOAA

TAF MMMY 261711Z 2618/2724 16012KT P6SM SCT020 SCT230 TX28/2620Z TN15/2712Z
BECMG 2700/2701 00000KT
FM270900 00000KT 3SM HZ OVC010
FM271600 22010KT 5SM HZ SCT020

Example: see airport list